ADDS METAR Data INFO
IDs: Format: Raw Decoded Include TAF

Data at: 0320 UTC 21 Sep 2017

KGOP 210315Z AUTO 15008KT 10SM CLR 29/21 A2992 RMK AO2
KGOP 210255Z AUTO 14006KT 10SM CLR 29/21 A2991 RMK AO2
KGOP 210235Z AUTO 14006KT 10SM CLR 29/21 A2990 RMK AO2
KGOP 210215Z AUTO 14006KT 10SM CLR 30/21 A2989 RMK AO2
KGOP 210155Z AUTO 14007KT 10SM CLR 30/21 A2988 RMK AO2
KGOP 210135Z AUTO 14008KT 10SM CLR 30/21 A2988 RMK AO2
KGOP 210115Z AUTO 15006KT 9SM CLR 31/21 A2988 RMK AO2
KGOP 210055Z AUTO 15007KT 10SM CLR 31/21 A2987 RMK AO2
KGOP 210035Z AUTO 14007G12KT 10SM CLR 31/21 A2987 RMK AO2
KGOP 210015Z AUTO 15009KT 10SM CLR 32/21 A2986 RMK AO2
KGOP 202355Z AUTO 15010KT 10SM CLR 33/21 A2986 RMK AO2
KGOP 202335Z AUTO 15011G17KT 10SM CLR 33/21 A2985 RMK AO2
KGOP 202315Z AUTO 16011KT 10SM CLR 34/21 A2985 RMK AO2
KGOP 202255Z AUTO 16010G16KT 10SM CLR 34/20 A2985 RMK AO2
KGOP 202235Z AUTO 15012KT 10SM CLR 35/20 A2984 RMK AO2
KGOP 202215Z AUTO 16012KT 10SM CLR 35/21 A2984 RMK AO2
KGOP 202155Z AUTO 17008G14KT 10SM CLR 35/21 A2984 RMK AO2
KGOP 202135Z AUTO 16013KT 10SM CLR 35/20 A2984 RMK AO2
KGOP 202115Z AUTO 15009G16KT 10SM CLR 35/21 A2985 RMK AO2
KGOP 202055Z AUTO 15011G17KT 10SM CLR 35/21 A2985 RMK AO2
KGOP 202035Z AUTO 17012G18KT 10SM CLR 36/20 A2986 RMK AO2
KGOP 202015Z AUTO 16007G17KT 10SM CLR 35/20 A2986 RMK AO2
KGOP 201955Z AUTO 17011KT 10SM CLR 35/20 A2987 RMK AO2
KGOP 201935Z AUTO 15012G18KT 10SM CLR 35/21 A2988 RMK AO2
KGOP 201915Z AUTO 17012G17KT 10SM CLR 34/21 A2988 RMK AO2
KGOP 201855Z AUTO 17009G17KT 10SM CLR 34/21 A2989 RMK AO2
KGOP 201835Z AUTO 17009G20KT 10SM CLR 34/21 A2990 RMK AO2
KGOP 201815Z AUTO 19011G17KT 10SM CLR 33/21 A2991 RMK AO2
KGOP 201755Z AUTO 16013KT 10SM CLR 33/21 A2992 RMK AO2
KGOP 201735Z AUTO 18013KT 10SM CLR 33/21 A2992 RMK AO2
KGOP 201715Z AUTO 15011G18KT 10SM CLR 32/21 A2993 RMK AO2
KGOP 201655Z AUTO 16011KT 10SM CLR 32/21 A2993 RMK AO2
KGOP 201635Z AUTO 18012G17KT 10SM CLR 31/21 A2994 RMK AO2
KGOP 201615Z AUTO 18015G21KT 10SM CLR 31/21 A2994 RMK AO2
KGOP 201555Z AUTO 18016KT 10SM CLR 30/21 A2994 RMK AO2
KGOP 201535Z AUTO 18012G19KT 10SM CLR 29/21 A2994 RMK AO2
KGOP 201515Z AUTO 19013G19KT 10SM FEW024 29/21 A2995 RMK AO2
KGOP 201455Z AUTO 17009G16KT 10SM FEW023 28/22 A2994 RMK AO2
KGOP 201435Z AUTO 18010KT 10SM FEW020 28/22 A2994 RMK AO2
KGOP 201415Z AUTO 17010G15KT 10SM FEW016 27/22 A2994 RMK AO2
KGOP 201355Z AUTO 16008KT 10SM CLR 26/22 A2994 RMK AO2
KGOP 201335Z AUTO 16006KT 10SM CLR 25/22 A2993 RMK AO2
KGOP 201315Z AUTO 16005KT 10SM CLR 25/22 A2994 RMK AO2
KGOP 201255Z AUTO 16005KT 10SM FEW016 24/22 A2993 RMK AO2
KGOP 201235Z AUTO 17005KT 10SM SCT016 24/22 A2993 RMK AO2
KGOP 201215Z AUTO 00000KT 10SM SCT016 24/22 A2992 RMK AO2
KGOP 201155Z AUTO 17005KT 10SM CLR 24/22 A2991 RMK AO2
KGOP 201135Z AUTO 17004G11KT 10SM CLR 24/22 A2991 RMK AO2
KGOP 201115Z AUTO 16006KT 10SM CLR 24/22 A2990 RMK AO2
KGOP 201055Z AUTO 16006KT 10SM CLR 24/22 A2989 RMK AO2
KGOP 201035Z AUTO 17006KT 10SM CLR 24/22 A2989 RMK AO2
KGOP 201015Z AUTO 16007KT 10SM CLR 24/21 A2989 RMK AO2
KGOP 200955Z AUTO 16008KT 10SM CLR 24/21 A2989 RMK AO2
KGOP 200935Z AUTO 16005KT 10SM CLR 25/21 A2989 RMK AO2
KGOP 200915Z AUTO 16004KT 10SM CLR 25/21 A2989 RMK AO2
KGOP 200855Z AUTO 16005KT 10SM CLR 25/21 A2989 RMK AO2
KGOP 200835Z AUTO 16006KT 10SM CLR 25/22 A2989 RMK AO2
KGOP 200815Z AUTO 16007KT 10SM CLR 25/22 A2988 RMK AO2
KGOP 200755Z AUTO 15005KT 10SM CLR 25/22 A2989 RMK AO2
KGOP 200735Z AUTO 00000KT 10SM CLR 26/22 A2990 RMK AO2
KGOP 200715Z AUTO 16005KT 10SM CLR 26/22 A2991 RMK AO2
KGOP 200655Z AUTO 16005KT 10SM CLR 26/22 A2990 RMK AO2
KGOP 200635Z AUTO 16007KT 10SM CLR 26/22 A2989 RMK AO2
KGOP 200615Z AUTO 15006KT 10SM CLR 27/22 A2990 RMK AO2
KGOP 200555Z AUTO 14004KT 10SM CLR 27/22 A2989 RMK AO2
KGOP 200535Z AUTO 14005G10KT 10SM CLR 27/22 A2988 RMK AO2
KGOP 200515Z AUTO 14005KT 10SM CLR 27/22 A2988 RMK AO2
KGOP 200455Z AUTO 14004KT 10SM CLR 27/21 A2989 RMK AO2
KGOP 200435Z AUTO 00000KT 10SM CLR 27/21 A2989 RMK AO2
KGOP 200415Z AUTO 00000KT 10SM CLR 28/21 A2989 RMK AO2
KGOP 200355Z AUTO 00000KT 10SM CLR 28/21 A2988 RMK AO2
KGOP 200335Z AUTO 00000KT 10SM CLR 29/21 A2989 RMK AO2
KGOP 200315Z AUTO 00000KT 10SM CLR 29/21 A2988 RMK AO2
KGOP 200255Z AUTO 14005KT 10SM CLR 29/21 A2988 RMK AO2
KGOP 200235Z AUTO 15007G12KT 10SM CLR 30/21 A2987 RMK AO2
KGOP 200215Z AUTO 14007KT 10SM CLR 29/22 A2985 RMK AO2
KGOP 200155Z AUTO 15009KT 10SM CLR 29/22 A2983 RMK AO2
KGOP 200135Z AUTO 16011KT 10SM CLR 30/21 A2981 RMK AO2
KGOP 200115Z AUTO 17010G16KT 10SM CLR 30/21 A2980 RMK AO2
KGOP 200055Z AUTO 16010KT 10SM CLR 30/22 A2979 RMK AO2
KGOP 200035Z AUTO 17009KT 10SM CLR 31/21 A2981 RMK AO2
KGOP 200015Z AUTO 18010G16KT 10SM CLR 31/20 A2983 RMK AO2
KGOP 192355Z AUTO 17009KT 10SM CLR 31/20 A2983 RMK AO2
KGOP 192335Z AUTO 17007G13KT 10SM CLR 32/20 A2984 RMK AO2 LTG DSNT SW AND W
KGOP 192315Z AUTO 18011KT 10SM CLR 32/20 A2985 RMK AO2
KGOP 192255Z AUTO 18014KT 10SM CLR 33/20 A2984 RMK AO2 LTG DSNT SW AND W
KGOP 192235Z AUTO 16010G15KT 10SM CLR 33/20 A2983 RMK AO2
KGOP 192215Z AUTO 15013KT 10SM CLR 33/20 A2982 RMK AO2
KGOP 192155Z AUTO 16011KT 10SM CLR 35/20 A2982 RMK AO2
KGOP 192135Z AUTO 16013KT 10SM CLR 35/20 A2983 RMK AO2
KGOP 192115Z AUTO 16008G15KT 10SM CLR 35/20 A2983 RMK AO2
KGOP 192055Z AUTO 16010KT 6SM HZ CLR 35/20 A2985 RMK AO2
KGOP 192035Z AUTO 16009G15KT 10SM CLR 34/20 A2986 RMK AO2
KGOP 192015Z AUTO 15010G15KT 10SM FEW049 FEW060 34/21 A2987 RMK AO2
KGOP 191955Z AUTO 17008G17KT 10SM FEW047 34/21 A2988 RMK AO2
KGOP 191935Z AUTO 16012KT 10SM FEW047 34/21 A2989 RMK AO2
KGOP 191915Z AUTO 18012KT 10SM FEW044 34/21 A2990 RMK AO2
KGOP 191855Z AUTO 19013KT 10SM FEW042 34/21 A2991 RMK AO2
KGOP 191835Z AUTO 17013KT 10SM FEW041 FEW100 33/21 A2992 RMK AO2
KGOP 191815Z AUTO 17009G16KT 10SM FEW040 FEW100 33/21 A2993 RMK AO2
KGOP 191755Z AUTO 18008G17KT 10SM CLR 33/21 A2994 RMK AO2
KGOP 191735Z AUTO 17009G16KT 10SM CLR 32/21 A2995 RMK AO2
KGOP 191715Z AUTO 18008KT 140V200 9SM FEW035 32/21 A2996 RMK AO2
KGOP 191655Z AUTO 18007G14KT 8SM CLR 31/21 A2997 RMK AO2
KGOP 191635Z AUTO 18011KT 10SM CLR 30/22 A2997 RMK AO2
KGOP 191615Z AUTO 16007G16KT 10SM FEW025 29/22 A2997 RMK AO2
KGOP 191555Z AUTO 17009G18KT 10SM BKN023 29/21 A2997 RMK AO2
KGOP 191535Z AUTO 17011G18KT 10SM SCT022 29/22 A2997 RMK AO2